sensor_id;sensor_type;location;lat;lon;timestamp;P1;durP1;ratioP1;P2;durP2;ratioP2
57071;SDS011;42956;51.366;11.298;2023-05-10T00:01:30;4.05;;;3.65;;
57071;SDS011;42956;51.366;11.298;2023-05-10T00:04:00;9.68;;;4.15;;
57071;SDS011;42956;51.366;11.298;2023-05-10T00:06:30;7.03;;;3.92;;
57071;SDS011;42956;51.366;11.298;2023-05-10T00:09:02;5.65;;;3.45;;
57071;SDS011;42956;51.366;11.298;2023-05-10T00:11:32;8.52;;;4.40;;
57071;SDS011;42956;51.366;11.298;2023-05-10T00:14:02;6.68;;;3.65;;
57071;SDS011;42956;51.366;11.298;2023-05-10T00:16:32;5.82;;;3.88;;
57071;SDS011;42956;51.366;11.298;2023-05-10T00:19:02;6.40;;;3.78;;
57071;SDS011;42956;51.366;11.298;2023-05-10T00:21:32;5.80;;;3.78;;
57071;SDS011;42956;51.366;11.298;2023-05-10T00:24:05;4.00;;;3.47;;
57071;SDS011;42956;51.366;11.298;2023-05-10T00:26:35;6.22;;;3.53;;
57071;SDS011;42956;51.366;11.298;2023-05-10T00:29:05;4.97;;;3.97;;
57071;SDS011;42956;51.366;11.298;2023-05-10T00:31:35;4.30;;;3.67;;
57071;SDS011;42956;51.366;11.298;2023-05-10T00:34:05;4.53;;;3.53;;
57071;SDS011;42956;51.366;11.298;2023-05-10T00:36:35;9.70;;;4.55;;
57071;SDS011;42956;51.366;11.298;2023-05-10T00:39:07;4.60;;;3.65;;
57071;SDS011;42956;51.366;11.298;2023-05-10T00:41:37;7.55;;;3.97;;
57071;SDS011;42956;51.366;11.298;2023-05-10T00:44:07;5.70;;;3.80;;
57071;SDS011;42956;51.366;11.298;2023-05-10T00:46:37;5.28;;;3.35;;
57071;SDS011;42956;51.366;11.298;2023-05-10T00:49:07;6.22;;;3.65;;
57071;SDS011;42956;51.366;11.298;2023-05-10T00:51:37;5.88;;;3.80;;
57071;SDS011;42956;51.366;11.298;2023-05-10T00:54:12;6.63;;;3.22;;
57071;SDS011;42956;51.366;11.298;2023-05-10T00:56:43;6.18;;;3.83;;
57071;SDS011;42956;51.366;11.298;2023-05-10T00:59:15;5.22;;;4.28;;
57071;SDS011;42956;51.366;11.298;2023-05-10T01:01:46;6.43;;;4.38;;
57071;SDS011;42956;51.366;11.298;2023-05-10T01:04:16;5.20;;;3.72;;
57071;SDS011;42956;51.366;11.298;2023-05-10T01:06:46;5.82;;;3.90;;
57071;SDS011;42956;51.366;11.298;2023-05-10T01:09:19;5.20;;;3.90;;
57071;SDS011;42956;51.366;11.298;2023-05-10T01:11:49;4.97;;;3.75;;
57071;SDS011;42956;51.366;11.298;2023-05-10T01:14:20;5.22;;;4.00;;
57071;SDS011;42956;51.366;11.298;2023-05-10T01:16:50;8.57;;;4.50;;
57071;SDS011;42956;51.366;11.298;2023-05-10T01:19:22;6.85;;;5.15;;
57071;SDS011;42956;51.366;11.298;2023-05-10T01:21:55;7.57;;;4.95;;
57071;SDS011;42956;51.366;11.298;2023-05-10T01:24:38;4.88;;;4.30;;
57071;SDS011;42956;51.366;11.298;2023-05-10T01:27:14;6.55;;;3.92;;
57071;SDS011;42956;51.366;11.298;2023-05-10T01:30:02;6.47;;;4.72;;
57071;SDS011;42956;51.366;11.298;2023-05-10T01:32:45;6.20;;;4.45;;
57071;SDS011;42956;51.366;11.298;2023-05-10T01:35:18;7.30;;;4.55;;
57071;SDS011;42956;51.366;11.298;2023-05-10T01:37:52;5.68;;;4.20;;
57071;SDS011;42956;51.366;11.298;2023-05-10T01:40:25;5.83;;;4.47;;
57071;SDS011;42956;51.366;11.298;2023-05-10T01:42:58;6.38;;;4.68;;
57071;SDS011;42956;51.366;11.298;2023-05-10T01:45:31;6.38;;;4.20;;
57071;SDS011;42956;51.366;11.298;2023-05-10T01:48:08;7.13;;;3.97;;
57071;SDS011;42956;51.366;11.298;2023-05-10T01:50:39;5.97;;;4.28;;
57071;SDS011;42956;51.366;11.298;2023-05-10T01:53:10;5.25;;;4.10;;
57071;SDS011;42956;51.366;11.298;2023-05-10T01:55:41;11.38;;;4.57;;
57071;SDS011;42956;51.366;11.298;2023-05-10T01:58:13;4.20;;;3.80;;
57071;SDS011;42956;51.366;11.298;2023-05-10T02:00:44;5.82;;;3.83;;
57071;SDS011;42956;51.366;11.298;2023-05-10T02:03:18;5.70;;;4.07;;
57071;SDS011;42956;51.366;11.298;2023-05-10T02:05:50;4.90;;;4.32;;
57071;SDS011;42956;51.366;11.298;2023-05-10T02:08:22;9.73;;;3.90;;
57071;SDS011;42956;51.366;11.298;2023-05-10T02:10:54;5.88;;;3.75;;
57071;SDS011;42956;51.366;11.298;2023-05-10T02:13:25;5.78;;;4.07;;
57071;SDS011;42956;51.366;11.298;2023-05-10T02:15:56;5.97;;;4.43;;
57071;SDS011;42956;51.366;11.298;2023-05-10T02:18:29;9.27;;;4.22;;
57071;SDS011;42956;51.366;11.298;2023-05-10T02:21:01;6.80;;;4.38;;
57071;SDS011;42956;51.366;11.298;2023-05-10T02:23:31;6.15;;;4.05;;
57071;SDS011;42956;51.366;11.298;2023-05-10T02:26:02;8.30;;;3.97;;
57071;SDS011;42956;51.366;11.298;2023-05-10T02:28:33;9.52;;;3.90;;
57071;SDS011;42956;51.366;11.298;2023-05-10T02:31:05;4.15;;;3.60;;
57071;SDS011;42956;51.366;11.298;2023-05-10T02:33:39;13.05;;;4.32;;
57071;SDS011;42956;51.366;11.298;2023-05-10T02:36:09;10.50;;;3.83;;
57071;SDS011;42956;51.366;11.298;2023-05-10T02:38:40;5.88;;;3.67;;
57071;SDS011;42956;51.366;11.298;2023-05-10T02:41:10;7.50;;;3.90;;
57071;SDS011;42956;51.366;11.298;2023-05-10T02:43:40;9.88;;;3.40;;
57071;SDS011;42956;51.366;11.298;2023-05-10T02:46:11;5.47;;;3.80;;
57071;SDS011;42956;51.366;11.298;2023-05-10T02:48:44;6.57;;;3.80;;
57071;SDS011;42956;51.366;11.298;2023-05-10T02:51:13;4.75;;;3.65;;
57071;SDS011;42956;51.366;11.298;2023-05-10T02:53:46;3.88;;;3.53;;
57071;SDS011;42956;51.366;11.298;2023-05-10T02:56:20;5.10;;;3.33;;
57071;SDS011;42956;51.366;11.298;2023-05-10T02:58:52;5.72;;;4.43;;
57071;SDS011;42956;51.366;11.298;2023-05-10T03:01:21;9.73;;;4.28;;
57071;SDS011;42956;51.366;11.298;2023-05-10T03:03:54;6.43;;;3.65;;
57071;SDS011;42956;51.366;11.298;2023-05-10T03:06:24;4.30;;;3.50;;
57071;SDS011;42956;51.366;11.298;2023-05-10T03:08:55;4.80;;;3.78;;
57071;SDS011;42956;51.366;11.298;2023-05-10T03:11:31;4.68;;;3.47;;
57071;SDS011;42956;51.366;11.298;2023-05-10T03:14:07;4.45;;;4.05;;
57071;SDS011;42956;51.366;11.298;2023-05-10T03:16:41;4.03;;;3.22;;
57071;SDS011;42956;51.366;11.298;2023-05-10T03:19:19;5.72;;;4.15;;
57071;SDS011;42956;51.366;11.298;2023-05-10T03:21:52;5.55;;;3.70;;
57071;SDS011;42956;51.366;11.298;2023-05-10T03:24:23;7.18;;;4.28;;
57071;SDS011;42956;51.366;11.298;2023-05-10T03:26:53;5.32;;;3.65;;
57071;SDS011;42956;51.366;11.298;2023-05-10T03:29:25;7.25;;;4.35;;
57071;SDS011;42956;51.366;11.298;2023-05-10T03:31:55;6.60;;;3.67;;
57071;SDS011;42956;51.366;11.298;2023-05-10T03:34:29;4.13;;;3.10;;
57071;SDS011;42956;51.366;11.298;2023-05-10T03:36:59;5.25;;;3.53;;
57071;SDS011;42956;51.366;11.298;2023-05-10T03:39:29;4.68;;;3.42;;
57071;SDS011;42956;51.366;11.298;2023-05-10T03:41:59;7.82;;;4.28;;
57071;SDS011;42956;51.366;11.298;2023-05-10T03:44:28;7.32;;;4.40;;
57071;SDS011;42956;51.366;11.298;2023-05-10T03:46:59;6.95;;;3.92;;
57071;SDS011;42956;51.366;11.298;2023-05-10T03:49:32;5.22;;;3.88;;
57071;SDS011;42956;51.366;11.298;2023-05-10T03:52:02;5.00;;;4.00;;
57071;SDS011;42956;51.366;11.298;2023-05-10T03:54:32;7.05;;;4.07;;
57071;SDS011;42956;51.366;11.298;2023-05-10T03:57:02;6.60;;;3.65;;
57071;SDS011;42956;51.366;11.298;2023-05-10T03:59:32;6.38;;;3.80;;
57071;SDS011;42956;51.366;11.298;2023-05-10T04:02:02;4.80;;;3.47;;
57071;SDS011;42956;51.366;11.298;2023-05-10T04:04:34;3.97;;;3.17;;
57071;SDS011;42956;51.366;11.298;2023-05-10T04:07:04;7.32;;;4.38;;
57071;SDS011;42956;51.366;11.298;2023-05-10T04:09:34;4.05;;;3.20;;
57071;SDS011;42956;51.366;11.298;2023-05-10T04:12:04;6.07;;;3.83;;
57071;SDS011;42956;51.366;11.298;2023-05-10T04:14:36;4.18;;;3.33;;
57071;SDS011;42956;51.366;11.298;2023-05-10T04:17:06;11.68;;;3.83;;
57071;SDS011;42956;51.366;11.298;2023-05-10T04:19:40;7.30;;;3.13;;
57071;SDS011;42956;51.366;11.298;2023-05-10T04:22:09;8.30;;;3.63;;
57071;SDS011;42956;51.366;11.298;2023-05-10T04:24:39;16.63;;;5.22;;
57071;SDS011;42956;51.366;11.298;2023-05-10T04:27:09;11.65;;;6.32;;
57071;SDS011;42956;51.366;11.298;2023-05-10T04:29:39;22.63;;;8.45;;
57071;SDS011;42956;51.366;11.298;2023-05-10T04:32:08;14.05;;;6.55;;
57071;SDS011;42956;51.366;11.298;2023-05-10T04:34:41;8.88;;;6.15;;
57071;SDS011;42956;51.366;11.298;2023-05-10T04:37:11;7.03;;;4.70;;
57071;SDS011;42956;51.366;11.298;2023-05-10T04:39:40;6.35;;;4.57;;
57071;SDS011;42956;51.366;11.298;2023-05-10T04:42:10;12.73;;;4.63;;
57071;SDS011;42956;51.366;11.298;2023-05-10T04:44:41;6.40;;;4.40;;
57071;SDS011;42956;51.366;11.298;2023-05-10T04:47:11;7.53;;;4.32;;
57071;SDS011;42956;51.366;11.298;2023-05-10T04:49:44;8.60;;;4.40;;
57071;SDS011;42956;51.366;11.298;2023-05-10T04:52:13;6.15;;;4.20;;
57071;SDS011;42956;51.366;11.298;2023-05-10T04:54:44;7.53;;;5.07;;
57071;SDS011;42956;51.366;11.298;2023-05-10T04:57:14;5.38;;;4.75;;
57071;SDS011;42956;51.366;11.298;2023-05-10T04:59:44;5.25;;;4.35;;
57071;SDS011;42956;51.366;11.298;2023-05-10T05:02:16;7.28;;;4.38;;
57071;SDS011;42956;51.366;11.298;2023-05-10T05:04:48;7.07;;;4.35;;
57071;SDS011;42956;51.366;11.298;2023-05-10T05:07:18;9.65;;;4.80;;
57071;SDS011;42956;51.366;11.298;2023-05-10T05:09:48;7.57;;;4.95;;
57071;SDS011;42956;51.366;11.298;2023-05-10T05:12:17;7.45;;;4.97;;
57071;SDS011;42956;51.366;11.298;2023-05-10T05:14:47;7.38;;;4.78;;
57071;SDS011;42956;51.366;11.298;2023-05-10T05:17:17;11.20;;;4.97;;
57071;SDS011;42956;51.366;11.298;2023-05-10T05:19:49;8.45;;;4.90;;
57071;SDS011;42956;51.366;11.298;2023-05-10T05:22:19;4.93;;;4.43;;
57071;SDS011;42956;51.366;11.298;2023-05-10T05:24:54;6.75;;;5.10;;
57071;SDS011;42956;51.366;11.298;2023-05-10T05:27:25;16.67;;;5.07;;
57071;SDS011;42956;51.366;11.298;2023-05-10T05:29:55;5.93;;;4.40;;
57071;SDS011;42956;51.366;11.298;2023-05-10T05:32:25;8.77;;;4.20;;
57071;SDS011;42956;51.366;11.298;2023-05-10T05:34:57;7.32;;;4.10;;
57071;SDS011;42956;51.366;11.298;2023-05-10T05:37:27;4.93;;;3.97;;
57071;SDS011;42956;51.366;11.298;2023-05-10T05:39:57;6.78;;;4.68;;
57071;SDS011;42956;51.366;11.298;2023-05-10T05:42:28;11.48;;;4.68;;
57071;SDS011;42956;51.366;11.298;2023-05-10T05:44:58;7.82;;;4.47;;
57071;SDS011;42956;51.366;11.298;2023-05-10T05:47:28;9.40;;;4.13;;
57071;SDS011;42956;51.366;11.298;2023-05-10T05:50:01;8.43;;;4.80;;
57071;SDS011;42956;51.366;11.298;2023-05-10T05:52:30;9.05;;;5.43;;
57071;SDS011;42956;51.366;11.298;2023-05-10T05:55:00;6.75;;;4.57;;
57071;SDS011;42956;51.366;11.298;2023-05-10T05:57:30;9.38;;;4.88;;
57071;SDS011;42956;51.366;11.298;2023-05-10T06:00:00;10.13;;;5.38;;
57071;SDS011;42956;51.366;11.298;2023-05-10T06:02:30;9.27;;;4.88;;
57071;SDS011;42956;51.366;11.298;2023-05-10T06:05:04;8.18;;;4.93;;
57071;SDS011;42956;51.366;11.298;2023-05-10T06:07:34;6.38;;;4.80;;
57071;SDS011;42956;51.366;11.298;2023-05-10T06:10:05;11.23;;;4.68;;
57071;SDS011;42956;51.366;11.298;2023-05-10T06:12:35;9.80;;;4.55;;
57071;SDS011;42956;51.366;11.298;2023-05-10T06:15:05;10.98;;;4.70;;
57071;SDS011;42956;51.366;11.298;2023-05-10T06:17:35;8.77;;;4.65;;
57071;SDS011;42956;51.366;11.298;2023-05-10T06:20:08;18.13;;;5.10;;
57071;SDS011;42956;51.366;11.298;2023-05-10T06:25:08;11.50;;;5.93;;
57071;SDS011;42956;51.366;11.298;2023-05-10T06:27:38;9.60;;;4.90;;
57071;SDS011;42956;51.366;11.298;2023-05-10T06:30:09;7.70;;;5.55;;
57071;SDS011;42956;51.366;11.298;2023-05-10T06:32:40;10.15;;;4.85;;
57071;SDS011;42956;51.366;11.298;2023-05-10T06:35:13;10.52;;;4.90;;
57071;SDS011;42956;51.366;11.298;2023-05-10T06:37:43;9.57;;;5.22;;
57071;SDS011;42956;51.366;11.298;2023-05-10T06:40:13;6.50;;;5.22;;
57071;SDS011;42956;51.366;11.298;2023-05-10T06:42:43;8.25;;;4.43;;
57071;SDS011;42956;51.366;11.298;2023-05-10T06:45:14;7.90;;;4.18;;
57071;SDS011;42956;51.366;11.298;2023-05-10T06:47:44;7.68;;;4.20;;
57071;SDS011;42956;51.366;11.298;2023-05-10T06:50:17;5.18;;;4.35;;
57071;SDS011;42956;51.366;11.298;2023-05-10T06:52:47;4.10;;;3.30;;
57071;SDS011;42956;51.366;11.298;2023-05-10T06:55:18;4.47;;;3.30;;
57071;SDS011;42956;51.366;11.298;2023-05-10T06:57:48;5.88;;;3.92;;
57071;SDS011;42956;51.366;11.298;2023-05-10T07:00:19;6.35;;;3.83;;
57071;SDS011;42956;51.366;11.298;2023-05-10T07:02:49;4.40;;;3.88;;
57071;SDS011;42956;51.366;11.298;2023-05-10T07:05:21;4.78;;;3.65;;
57071;SDS011;42956;51.366;11.298;2023-05-10T07:07:51;11.50;;;3.65;;
57071;SDS011;42956;51.366;11.298;2023-05-10T07:10:21;4.72;;;3.72;;
57071;SDS011;42956;51.366;11.298;2023-05-10T07:12:51;4.30;;;3.38;;
57071;SDS011;42956;51.366;11.298;2023-05-10T07:15:21;7.75;;;3.97;;
57071;SDS011;42956;51.366;11.298;2023-05-10T07:17:51;3.78;;;3.38;;
57071;SDS011;42956;51.366;11.298;2023-05-10T07:20:24;4.30;;;3.53;;
57071;SDS011;42956;51.366;11.298;2023-05-10T07:22:54;4.35;;;3.55;;
57071;SDS011;42956;51.366;11.298;2023-05-10T07:25:23;5.18;;;3.60;;
57071;SDS011;42956;51.366;11.298;2023-05-10T07:27:53;4.55;;;3.35;;
57071;SDS011;42956;51.366;11.298;2023-05-10T07:30:23;5.45;;;3.40;;
57071;SDS011;42956;51.366;11.298;2023-05-10T07:32:53;5.80;;;3.90;;
57071;SDS011;42956;51.366;11.298;2023-05-10T07:35:25;7.93;;;3.42;;
57071;SDS011;42956;51.366;11.298;2023-05-10T07:37:55;13.40;;;5.13;;
57071;SDS011;42956;51.366;11.298;2023-05-10T07:40:25;5.38;;;4.22;;
57071;SDS011;42956;51.366;11.298;2023-05-10T07:42:55;4.13;;;3.70;;
57071;SDS011;42956;51.366;11.298;2023-05-10T07:45:26;9.10;;;4.40;;
57071;SDS011;42956;51.366;11.298;2023-05-10T07:47:56;3.92;;;3.53;;
57071;SDS011;42956;51.366;11.298;2023-05-10T07:50:28;4.70;;;3.95;;
57071;SDS011;42956;51.366;11.298;2023-05-10T07:52:58;7.55;;;3.85;;
57071;SDS011;42956;51.366;11.298;2023-05-10T07:55:28;5.95;;;3.83;;
57071;SDS011;42956;51.366;11.298;2023-05-10T07:57:58;4.30;;;3.25;;
57071;SDS011;42956;51.366;11.298;2023-05-10T08:00:27;8.00;;;3.85;;
57071;SDS011;42956;51.366;11.298;2023-05-10T08:02:57;4.35;;;3.72;;
57071;SDS011;42956;51.366;11.298;2023-05-10T08:05:30;3.75;;;3.00;;
57071;SDS011;42956;51.366;11.298;2023-05-10T08:08:01;4.40;;;3.63;;
57071;SDS011;42956;51.366;11.298;2023-05-10T08:10:31;4.82;;;3.15;;
57071;SDS011;42956;51.366;11.298;2023-05-10T08:13:01;3.78;;;3.22;;
57071;SDS011;42956;51.366;11.298;2023-05-10T08:15:31;10.05;;;4.03;;
57071;SDS011;42956;51.366;11.298;2023-05-10T08:18:00;5.15;;;3.53;;
57071;SDS011;42956;51.366;11.298;2023-05-10T08:20:33;3.05;;;2.75;;
57071;SDS011;42956;51.366;11.298;2023-05-10T08:23:03;3.60;;;2.97;;
57071;SDS011;42956;51.366;11.298;2023-05-10T08:25:33;4.93;;;3.08;;
57071;SDS011;42956;51.366;11.298;2023-05-10T08:28:03;3.08;;;2.60;;
57071;SDS011;42956;51.366;11.298;2023-05-10T08:30:35;5.18;;;3.17;;
57071;SDS011;42956;51.366;11.298;2023-05-10T08:33:05;3.63;;;3.13;;
57071;SDS011;42956;51.366;11.298;2023-05-10T08:35:37;4.15;;;3.35;;
57071;SDS011;42956;51.366;11.298;2023-05-10T08:38:08;3.95;;;3.25;;
57071;SDS011;42956;51.366;11.298;2023-05-10T08:40:38;4.88;;;3.35;;
57071;SDS011;42956;51.366;11.298;2023-05-10T08:43:11;5.43;;;3.30;;
57071;SDS011;42956;51.366;11.298;2023-05-10T08:45:42;5.10;;;3.55;;
57071;SDS011;42956;51.366;11.298;2023-05-10T08:48:13;3.45;;;3.05;;
57071;SDS011;42956;51.366;11.298;2023-05-10T08:50:46;4.40;;;3.58;;
57071;SDS011;42956;51.366;11.298;2023-05-10T08:53:17;5.43;;;3.95;;
57071;SDS011;42956;51.366;11.298;2023-05-10T08:55:49;5.55;;;3.92;;
57071;SDS011;42956;51.366;11.298;2023-05-10T08:58:19;4.35;;;3.58;;
57071;SDS011;42956;51.366;11.298;2023-05-10T09:00:49;3.90;;;3.50;;
57071;SDS011;42956;51.366;11.298;2023-05-10T09:03:20;5.63;;;3.55;;
57071;SDS011;42956;51.366;11.298;2023-05-10T09:05:52;4.90;;;4.40;;
57071;SDS011;42956;51.366;11.298;2023-05-10T09:08:22;4.32;;;3.80;;
57071;SDS011;42956;51.366;11.298;2023-05-10T09:10:53;7.03;;;4.03;;
57071;SDS011;42956;51.366;11.298;2023-05-10T09:13:23;4.95;;;3.72;;
57071;SDS011;42956;51.366;11.298;2023-05-10T09:15:54;4.18;;;3.35;;
57071;SDS011;42956;51.366;11.298;2023-05-10T09:18:32;8.57;;;3.97;;
57071;SDS011;42956;51.366;11.298;2023-05-10T09:21:05;3.92;;;3.53;;
57071;SDS011;42956;51.366;11.298;2023-05-10T09:23:35;7.50;;;3.05;;
57071;SDS011;42956;51.366;11.298;2023-05-10T09:26:04;6.60;;;3.30;;
57071;SDS011;42956;51.366;11.298;2023-05-10T09:28:49;3.10;;;2.70;;
57071;SDS011;42956;51.366;11.298;2023-05-10T09:31:19;5.55;;;3.30;;
57071;SDS011;42956;51.366;11.298;2023-05-10T09:33:50;5.95;;;3.05;;
57071;SDS011;42956;51.366;11.298;2023-05-10T09:36:23;5.22;;;3.65;;
57071;SDS011;42956;51.366;11.298;2023-05-10T09:38:53;4.32;;;2.95;;
57071;SDS011;42956;51.366;11.298;2023-05-10T09:41:23;4.80;;;3.80;;
57071;SDS011;42956;51.366;11.298;2023-05-10T09:43:55;2.92;;;2.72;;
57071;SDS011;42956;51.366;11.298;2023-05-10T09:46:24;3.40;;;2.80;;
57071;SDS011;42956;51.366;11.298;2023-05-10T09:48:55;4.50;;;2.45;;
57071;SDS011;42956;51.366;11.298;2023-05-10T09:51:27;3.90;;;2.65;;
57071;SDS011;42956;51.366;11.298;2023-05-10T09:54:08;5.38;;;3.03;;
57071;SDS011;42956;51.366;11.298;2023-05-10T09:56:38;4.03;;;3.03;;
57071;SDS011;42956;51.366;11.298;2023-05-10T09:59:10;6.35;;;2.80;;
57071;SDS011;42956;51.366;11.298;2023-05-10T10:01:40;3.80;;;2.87;;
57071;SDS011;42956;51.366;11.298;2023-05-10T10:04:10;4.80;;;2.80;;
57071;SDS011;42956;51.366;11.298;2023-05-10T10:06:43;4.90;;;2.80;;
57071;SDS011;42956;51.366;11.298;2023-05-10T10:09:13;4.03;;;2.90;;
57071;SDS011;42956;51.366;11.298;2023-05-10T10:11:47;3.03;;;2.72;;
57071;SDS011;42956;51.366;11.298;2023-05-10T10:14:17;3.80;;;3.28;;
57071;SDS011;42956;51.366;11.298;2023-05-10T10:16:47;8.63;;;3.10;;
57071;SDS011;42956;51.366;11.298;2023-05-10T10:19:34;5.65;;;3.42;;
57071;SDS011;42956;51.366;11.298;2023-05-10T10:22:06;7.25;;;3.50;;
57071;SDS011;42956;51.366;11.298;2023-05-10T10:24:38;2.88;;;2.53;;
57071;SDS011;42956;51.366;11.298;2023-05-10T10:27:11;2.72;;;2.40;;
57071;SDS011;42956;51.366;11.298;2023-05-10T10:29:59;2.40;;;2.20;;
57071;SDS011;42956;51.366;11.298;2023-05-10T10:32:35;4.65;;;2.25;;
57071;SDS011;42956;51.366;11.298;2023-05-10T10:35:07;2.40;;;1.70;;
57071;SDS011;42956;51.366;11.298;2023-05-10T10:37:44;1.85;;;1.25;;
57071;SDS011;42956;51.366;11.298;2023-05-10T10:40:24;0.88;;;0.80;;
57071;SDS011;42956;51.366;11.298;2023-05-10T10:42:54;1.52;;;0.70;;
57071;SDS011;42956;51.366;11.298;2023-05-10T10:45:24;0.60;;;0.60;;
57071;SDS011;42956;51.366;11.298;2023-05-10T10:50:45;1.08;;;0.57;;
57071;SDS011;42956;51.366;11.298;2023-05-10T10:53:18;0.60;;;0.40;;
57071;SDS011;42956;51.366;11.298;2023-05-10T10:55:48;1.08;;;0.63;;
57071;SDS011;42956;51.366;11.298;2023-05-10T10:58:28;0.50;;;0.50;;
57071;SDS011;42956;51.366;11.298;2023-05-10T11:01:12;0.85;;;0.50;;
57071;SDS011;42956;51.366;11.298;2023-05-10T11:03:54;0.40;;;0.40;;
57071;SDS011;42956;51.366;11.298;2023-05-10T11:06:28;0.60;;;0.60;;
57071;SDS011;42956;51.366;11.298;2023-05-10T11:09:04;1.42;;;0.80;;
57071;SDS011;42956;51.366;11.298;2023-05-10T11:11:35;2.13;;;0.80;;
57071;SDS011;42956;51.366;11.298;2023-05-10T11:14:05;0.90;;;0.90;;
57071;SDS011;42956;51.366;11.298;2023-05-10T11:16:40;1.10;;;0.82;;
57071;SDS011;42956;51.366;11.298;2023-05-10T11:19:11;0.70;;;0.70;;
57071;SDS011;42956;51.366;11.298;2023-05-10T11:21:44;2.58;;;1.10;;
57071;SDS011;42956;51.366;11.298;2023-05-10T11:24:18;1.20;;;1.10;;
57071;SDS011;42956;51.366;11.298;2023-05-10T11:29:18;1.45;;;1.20;;
57071;SDS011;42956;51.366;11.298;2023-05-10T11:31:48;1.30;;;1.20;;
57071;SDS011;42956;51.366;11.298;2023-05-10T11:34:24;2.80;;;1.17;;
57071;SDS011;42956;51.366;11.298;2023-05-10T11:36:54;2.38;;;1.25;;
57071;SDS011;42956;51.366;11.298;2023-05-10T11:39:28;1.33;;;1.15;;
57071;SDS011;42956;51.366;11.298;2023-05-10T11:41:58;1.23;;;1.10;;
57071;SDS011;42956;51.366;11.298;2023-05-10T11:44:29;1.20;;;0.80;;
57071;SDS011;42956;51.366;11.298;2023-05-10T11:46:59;0.93;;;0.82;;
57071;SDS011;42956;51.366;11.298;2023-05-10T11:49:30;1.17;;;0.70;;
57071;SDS011;42956;51.366;11.298;2023-05-10T11:52:06;2.38;;;0.70;;
57071;SDS011;42956;51.366;11.298;2023-05-10T11:54:42;0.93;;;0.85;;
57071;SDS011;42956;51.366;11.298;2023-05-10T11:57:14;0.88;;;0.82;;
57071;SDS011;42956;51.366;11.298;2023-05-10T11:59:43;2.13;;;0.82;;
57071;SDS011;42956;51.366;11.298;2023-05-10T12:02:13;0.73;;;0.70;;
57071;SDS011;42956;51.366;11.298;2023-05-10T12:04:43;1.10;;;1.00;;
57071;SDS011;42956;51.366;11.298;2023-05-10T12:07:13;1.90;;;1.25;;
57071;SDS011;42956;51.366;11.298;2023-05-10T12:09:55;1.83;;;1.25;;
57071;SDS011;42956;51.366;11.298;2023-05-10T12:12:37;1.30;;;1.20;;
57071;SDS011;42956;51.366;11.298;2023-05-10T12:15:12;2.35;;;1.27;;
57071;SDS011;42956;51.366;11.298;2023-05-10T12:17:43;2.65;;;1.83;;
57071;SDS011;42956;51.366;11.298;2023-05-10T12:20:13;2.30;;;1.85;;
57071;SDS011;42956;51.366;11.298;2023-05-10T12:22:45;2.53;;;1.33;;
57071;SDS011;42956;51.366;11.298;2023-05-10T12:25:18;1.77;;;1.13;;
57071;SDS011;42956;51.366;11.298;2023-05-10T12:27:48;1.08;;;1.00;;
57071;SDS011;42956;51.366;11.298;2023-05-10T12:30:21;2.00;;;1.40;;
57071;SDS011;42956;51.366;11.298;2023-05-10T12:32:51;8.93;;;1.58;;
57071;SDS011;42956;51.366;11.298;2023-05-10T12:35:21;1.58;;;1.45;;
57071;SDS011;42956;51.366;11.298;2023-05-10T12:37:51;2.88;;;1.42;;
57071;SDS011;42956;51.366;11.298;2023-05-10T12:40:24;1.55;;;1.45;;
57071;SDS011;42956;51.366;11.298;2023-05-10T12:42:54;1.20;;;1.10;;
57071;SDS011;42956;51.366;11.298;2023-05-10T12:45:24;0.80;;;0.80;;
57071;SDS011;42956;51.366;11.298;2023-05-10T12:47:53;1.40;;;1.30;;
57071;SDS011;42956;51.366;11.298;2023-05-10T12:50:23;1.08;;;0.98;;
57071;SDS011;42956;51.366;11.298;2023-05-10T12:52:53;1.27;;;1.17;;
57071;SDS011;42956;51.366;11.298;2023-05-10T12:55:26;1.63;;;1.08;;
57071;SDS011;42956;51.366;11.298;2023-05-10T12:57:55;1.02;;;1.02;;
57071;SDS011;42956;51.366;11.298;2023-05-10T13:00:25;1.05;;;0.98;;
57071;SDS011;42956;51.366;11.298;2023-05-10T13:02:55;1.10;;;0.98;;
57071;SDS011;42956;51.366;11.298;2023-05-10T13:05:24;1.85;;;1.23;;
57071;SDS011;42956;51.366;11.298;2023-05-10T13:07:54;1.25;;;1.15;;
57071;SDS011;42956;51.366;11.298;2023-05-10T13:10:27;1.25;;;1.10;;
57071;SDS011;42956;51.366;11.298;2023-05-10T13:12:57;1.30;;;1.20;;
57071;SDS011;42956;51.366;11.298;2023-05-10T13:15:28;2.63;;;1.40;;
57071;SDS011;42956;51.366;11.298;2023-05-10T13:17:57;1.77;;;1.35;;
57071;SDS011;42956;51.366;11.298;2023-05-10T13:20:27;1.92;;;1.00;;
57071;SDS011;42956;51.366;11.298;2023-05-10T13:22:57;1.60;;;0.93;;
57071;SDS011;42956;51.366;11.298;2023-05-10T13:25:29;0.98;;;0.90;;
57071;SDS011;42956;51.366;11.298;2023-05-10T13:28:01;1.30;;;1.15;;
57071;SDS011;42956;51.366;11.298;2023-05-10T13:30:31;1.20;;;1.10;;
57071;SDS011;42956;51.366;11.298;2023-05-10T13:33:01;3.20;;;0.93;;
57071;SDS011;42956;51.366;11.298;2023-05-10T13:35:31;1.60;;;1.10;;
57071;SDS011;42956;51.366;11.298;2023-05-10T13:38:01;1.08;;;1.02;;
57071;SDS011;42956;51.366;11.298;2023-05-10T13:40:33;3.90;;;0.85;;
57071;SDS011;42956;51.366;11.298;2023-05-10T13:43:03;2.95;;;1.27;;
57071;SDS011;42956;51.366;11.298;2023-05-10T13:45:32;2.13;;;1.05;;
57071;SDS011;42956;51.366;11.298;2023-05-10T13:48:02;1.63;;;1.20;;
57071;SDS011;42956;51.366;11.298;2023-05-10T13:50:32;1.52;;;1.02;;
57071;SDS011;42956;51.366;11.298;2023-05-10T13:53:02;1.58;;;0.98;;
57071;SDS011;42956;51.366;11.298;2023-05-10T13:55:34;1.10;;;1.00;;
57071;SDS011;42956;51.366;11.298;2023-05-10T13:58:04;1.40;;;1.02;;
57071;SDS011;42956;51.366;11.298;2023-05-10T14:00:34;1.52;;;1.00;;
57071;SDS011;42956;51.366;11.298;2023-05-10T14:03:04;2.72;;;0.98;;
57071;SDS011;42956;51.366;11.298;2023-05-10T14:05:36;1.42;;;1.15;;
57071;SDS011;42956;51.366;11.298;2023-05-10T14:08:06;1.30;;;1.15;;
57071;SDS011;42956;51.366;11.298;2023-05-10T14:10:38;2.45;;;1.05;;
57071;SDS011;42956;51.366;11.298;2023-05-10T14:13:08;0.90;;;0.90;;
57071;SDS011;42956;51.366;11.298;2023-05-10T14:15:38;1.90;;;1.00;;
57071;SDS011;42956;51.366;11.298;2023-05-10T14:18:08;1.92;;;0.98;;
57071;SDS011;42956;51.366;11.298;2023-05-10T14:20:38;2.78;;;0.95;;
57071;SDS011;42956;51.366;11.298;2023-05-10T14:23:08;1.60;;;1.20;;
57071;SDS011;42956;51.366;11.298;2023-05-10T14:25:40;4.13;;;1.20;;
57071;SDS011;42956;51.366;11.298;2023-05-10T14:28:10;1.40;;;1.30;;
57071;SDS011;42956;51.366;11.298;2023-05-10T14:30:41;4.68;;;1.20;;
57071;SDS011;42956;51.366;11.298;2023-05-10T14:33:10;1.15;;;0.93;;
57071;SDS011;42956;51.366;11.298;2023-05-10T14:35:40;1.30;;;1.00;;
57071;SDS011;42956;51.366;11.298;2023-05-10T14:38:10;1.38;;;0.95;;
57071;SDS011;42956;51.366;11.298;2023-05-10T14:40:42;1.63;;;1.02;;
57071;SDS011;42956;51.366;11.298;2023-05-10T14:43:12;0.88;;;0.88;;
57071;SDS011;42956;51.366;11.298;2023-05-10T14:45:42;1.10;;;1.00;;
57071;SDS011;42956;51.366;11.298;2023-05-10T14:48:12;2.47;;;1.20;;
57071;SDS011;42956;51.366;11.298;2023-05-10T14:50:44;0.85;;;0.80;;
57071;SDS011;42956;51.366;11.298;2023-05-10T14:53:16;1.52;;;0.80;;
57071;SDS011;42956;51.366;11.298;2023-05-10T14:55:48;1.77;;;0.90;;
57071;SDS011;42956;51.366;11.298;2023-05-10T14:58:19;1.52;;;1.13;;
57071;SDS011;42956;51.366;11.298;2023-05-10T15:00:48;0.90;;;0.80;;
57071;SDS011;42956;51.366;11.298;2023-05-10T15:03:19;1.00;;;0.90;;
57071;SDS011;42956;51.366;11.298;2023-05-10T15:05:49;0.90;;;0.90;;